Time;durP1;ratioP1;P1;durP2;ratioP2;P2;SDS_P1;SDS_P2;PMS_P1;PMS_P2;Temp;Humidity;BMP_temperature;BMP_pressure;BME280_temperature;BME280_humidity;BME280_pressure;Samples;Min_cycle;Max_cycle;Signal;HPM_P1;HPM_P2
2021/04/22 00:00:32;;;;;;;15.27;5.80;;;;;;;;;;2106371;28;20202;-60
2021/04/22 00:01:34;;;;;;;14.47;5.53;;;;;;;;;;2097696;28;20187;-61
2021/04/22 00:02:34;;;;;;;17.90;6.13;;;;;;;;;;2097850;28;20675;-59
2021/04/22 00:03:34;;;;;;;19.07;6.07;;;;;;;;;;2098091;28;20216;-60
2021/04/22 00:04:35;;;;;;;15.40;6.57;;;;;;;;;;2098589;28;20297;-57
2021/04/22 00:05:39;;;;;;;17.53;5.63;;;;;;;;;;2098472;28;20163;-59
2021/04/22 00:06:39;;;;;;;16.50;6.60;;;;;;;;;;2098786;28;20202;-59
2021/04/22 00:07:39;;;;;;;20.43;5.93;;;;;;;;;;2098620;28;20258;-62
2021/04/22 00:08:40;;;;;;;16.07;6.03;;;;;;;;;;2098525;28;20655;-62
2021/04/22 00:09:40;;;;;;;21.47;6.87;;;;;;;;;;2098528;28;20171;-61
2021/04/22 00:10:40;;;;;;;13.27;6.43;;;;;;;;;;2098770;28;20542;-60
2021/04/22 00:11:40;;;;;;;13.57;6.50;;;;;;;;;;2094779;28;20667;-61
2021/04/22 00:12:41;;;;;;;19.50;6.67;;;;;;;;;;2096706;28;20205;-58
2021/04/22 00:13:41;;;;;;;18.33;6.23;;;;;;;;;;2096991;28;20201;-60
2021/04/22 00:14:42;;;;;;;13.47;5.30;;;;;;;;;;2098294;28;20232;-61
2021/04/22 00:15:42;;;;;;;17.33;7.00;;;;;;;;;;2091928;28;20254;-60
2021/04/22 00:16:43;;;;;;;18.33;6.93;;;;;;;;;;2096317;28;20206;-62
2021/04/22 00:17:46;;;;;;;18.23;7.43;;;;;;;;;;2097470;28;20179;-60
2021/04/22 00:18:47;;;;;;;16.23;6.47;;;;;;;;;;2097946;28;20175;-62
2021/04/22 00:19:47;;;;;;;21.33;6.23;;;;;;;;;;2097579;28;20663;-60
2021/04/22 00:20:48;;;;;;;19.93;5.90;;;;;;;;;;2097862;28;20159;-58
2021/04/22 00:21:48;;;;;;;18.17;6.63;;;;;;;;;;2097458;28;20636;-60
2021/04/22 00:22:48;;;;;;;15.83;6.27;;;;;;;;;;2097760;28;20175;-59
2021/04/22 00:23:49;;;;;;;20.00;6.70;;;;;;;;;;2097360;28;20178;-61
2021/04/22 00:24:49;;;;;;;17.63;6.80;;;;;;;;;;2096755;28;20167;-59
2021/04/22 00:25:49;;;;;;;14.63;6.70;;;;;;;;;;2098914;28;20250;-61
2021/04/22 00:26:50;;;;;;;18.53;6.97;;;;;;;;;;2104952;28;20612;-60
2021/04/22 00:27:50;;;;;;;20.20;6.27;;;;;;;;;;2091571;28;20171;-61
2021/04/22 00:28:50;;;;;;;17.30;6.70;;;;;;;;;;2096420;28;20179;-59
2021/04/22 00:29:51;;;;;;;24.30;7.43;;;;;;;;;;2097134;28;20255;-61
2021/04/22 00:30:51;;;;;;;19.93;6.53;;;;;;;;;;2097309;28;20169;-60
2021/04/22 00:31:52;;;;;;;16.63;6.57;;;;;;;;;;2097002;28;20172;-59
2021/04/22 00:32:52;;;;;;;16.63;6.93;;;;;;;;;;2088228;28;20163;-57
2021/04/22 00:33:52;;;;;;;15.37;8.03;;;;;;;;;;2096710;28;20882;-61
2021/04/22 00:34:52;;;;;;;19.00;7.00;;;;;;;;;;2097117;28;20186;-58
2021/04/22 00:35:53;;;;;;;15.93;6.13;;;;;;;;;;2098396;28;20704;-62
2021/04/22 00:36:53;;;;;;;12.83;6.03;;;;;;;;;;2096009;28;20704;-59
2021/04/22 00:37:53;;;;;;;17.93;6.43;;;;;;;;;;2097982;28;20173;-60
2021/04/22 00:38:53;;;;;;;15.63;6.13;;;;;;;;;;2096728;28;20652;-63
2021/04/22 00:39:54;;;;;;;21.33;6.97;;;;;;;;;;2098333;28;20602;-61
2021/04/22 00:40:54;;;;;;;11.07;6.10;;;;;;;;;;2096931;28;20166;-61
2021/04/22 00:41:54;;;;;;;18.00;6.13;;;;;;;;;;2097774;28;20179;-58
2021/04/22 00:42:58;;;;;;;20.27;7.20;;;;;;;;;;2096315;28;20189;-61
2021/04/22 00:43:58;;;;;;;17.47;6.53;;;;;;;;;;2089000;28;20164;-63
2021/04/22 00:44:59;;;;;;;14.47;6.90;;;;;;;;;;2092860;28;20254;-62
2021/04/22 00:45:59;;;;;;;19.67;7.00;;;;;;;;;;2089986;28;20164;-61
2021/04/22 00:47:00;;;;;;;13.00;6.00;;;;;;;;;;2091932;28;20233;-60
2021/04/22 00:48:00;;;;;;;15.37;6.33;;;;;;;;;;2097269;28;20171;-65
2021/04/22 00:49:00;;;;;;;16.83;7.13;;;;;;;;;;2089053;28;20164;-62
2021/04/22 00:50:00;;;;;;;19.50;7.07;;;;;;;;;;2093049;28;20199;-62
2021/04/22 00:51:01;;;;;;;17.40;6.70;;;;;;;;;;2103006;28;20171;-62
2021/04/22 00:52:02;;;;;;;22.27;7.47;;;;;;;;;;2097243;28;20738;-62
2021/04/22 00:53:02;;;;;;;21.83;6.33;;;;;;;;;;2097019;28;20175;-62
2021/04/22 00:54:03;;;;;;;17.63;6.77;;;;;;;;;;2096385;28;20218;-61
2021/04/22 00:55:05;;;;;;;16.57;6.37;;;;;;;;;;2096816;28;20179;-64
2021/04/22 00:56:05;;;;;;;16.00;6.70;;;;;;;;;;2095160;28;20271;-62
2021/04/22 00:57:06;;;;;;;18.53;6.20;;;;;;;;;;2097650;28;20203;-58
2021/04/22 00:58:07;;;;;;;20.47;7.27;;;;;;;;;;2097063;28;20178;-62
2021/04/22 00:59:07;;;;;;;17.10;7.27;;;;;;;;;;2097040;28;20174;-60
2021/04/22 01:00:09;;;;;;;17.90;7.13;;;;;;;;;;2095305;28;20218;-60
2021/04/22 01:01:09;;;;;;;12.53;6.20;;;;;;;;;;2098326;28;20235;-63
2021/04/22 01:02:10;;;;;;;16.63;6.40;;;;;;;;;;2096619;28;20179;-60
2021/04/22 01:03:11;;;;;;;16.37;6.57;;;;;;;;;;2096092;28;20171;-61
2021/04/22 01:04:11;;;;;;;13.03;6.30;;;;;;;;;;2097262;28;20199;-65
2021/04/22 01:05:14;;;;;;;16.83;7.07;;;;;;;;;;2097958;28;20178;-56
2021/04/22 01:06:14;;;;;;;13.90;6.07;;;;;;;;;;2093743;28;20293;-61
2021/04/22 01:07:14;;;;;;;17.67;6.97;;;;;;;;;;2097449;28;20193;-58
2021/04/22 01:08:15;;;;;;;18.47;6.40;;;;;;;;;;2095636;28;20175;-55
2021/04/22 01:09:15;;;;;;;16.03;6.77;;;;;;;;;;2096846;28;20173;-60
2021/04/22 01:10:16;;;;;;;22.00;8.00;;;;;;;;;;2093421;28;20202;-61
2021/04/22 01:11:17;;;;;;;20.00;6.63;;;;;;;;;;2097567;28;20198;-56
2021/04/22 01:12:17;;;;;;;13.70;6.13;;;;;;;;;;2097528;28;20686;-61
2021/04/22 01:13:17;;;;;;;22.93;6.33;;;;;;;;;;2096346;28;20320;-58
2021/04/22 01:14:17;;;;;;;16.33;6.37;;;;;;;;;;2097529;28;20253;-60
2021/04/22 01:15:19;;;;;;;19.90;6.80;;;;;;;;;;2095421;28;20178;-60
2021/04/22 01:16:19;;;;;;;13.17;6.60;;;;;;;;;;2096461;28;20210;-59
2021/04/22 01:17:20;;;;;;;11.60;6.50;;;;;;;;;;2092858;28;20202;-60
2021/04/22 01:18:20;;;;;;;16.23;7.30;;;;;;;;;;2097588;28;20206;-61
2021/04/22 01:19:21;;;;;;;19.50;6.47;;;;;;;;;;2097179;28;20170;-58
2021/04/22 01:20:23;;;;;;;20.37;6.73;;;;;;;;;;2096726;28;20260;-60
2021/04/22 01:21:24;;;;;;;13.63;6.67;;;;;;;;;;2097121;28;20197;-62
2021/04/22 01:22:24;;;;;;;20.20;5.87;;;;;;;;;;2098428;28;20170;-57
2021/04/22 01:23:25;;;;;;;12.33;5.63;;;;;;;;;;2096103;28;20683;-59
2021/04/22 01:24:25;;;;;;;13.47;6.33;;;;;;;;;;2097536;28;20283;-59
2021/04/22 01:25:27;;;;;;;14.33;6.20;;;;;;;;;;2100820;28;20193;-59
2021/04/22 01:26:27;;;;;;;18.63;6.37;;;;;;;;;;2095731;28;20240;-59
2021/04/22 01:27:27;;;;;;;10.10;6.30;;;;;;;;;;2092787;28;20738;-62
2021/04/22 01:28:28;;;;;;;15.83;6.63;;;;;;;;;;2097588;28;20182;-59
2021/04/22 01:29:28;;;;;;;15.30;6.67;;;;;;;;;;2097154;28;20211;-61
2021/04/22 01:30:31;;;;;;;13.57;5.90;;;;;;;;;;2097813;28;20531;-58
2021/04/22 01:31:31;;;;;;;14.10;6.10;;;;;;;;;;2096897;28;20229;-59
2021/04/22 01:32:31;;;;;;;10.83;6.30;;;;;;;;;;2097914;28;20159;-60
2021/04/22 01:33:31;;;;;;;15.80;6.57;;;;;;;;;;2095288;28;20171;-57
2021/04/22 01:34:32;;;;;;;14.10;6.07;;;;;;;;;;2097297;28;20206;-61
2021/04/22 01:35:34;;;;;;;15.47;6.80;;;;;;;;;;2097484;28;20369;-57
2021/04/22 01:36:34;;;;;;;16.17;6.57;;;;;;;;;;2097854;28;20289;-59
2021/04/22 01:37:35;;;;;;;14.53;6.07;;;;;;;;;;2089664;28;20187;-61
2021/04/22 01:38:36;;;;;;;12.57;6.17;;;;;;;;;;2095560;28;20162;-58
2021/04/22 01:39:36;;;;;;;12.87;5.97;;;;;;;;;;2096681;28;20264;-60
2021/04/22 01:40:38;;;;;;;16.63;5.90;;;;;;;;;;2096480;28;20254;-62
2021/04/22 01:41:39;;;;;;;21.10;6.60;;;;;;;;;;2096474;28;20658;-59
2021/04/22 01:42:40;;;;;;;15.27;6.07;;;;;;;;;;2097370;28;20185;-57
2021/04/22 01:43:40;;;;;;;21.57;6.23;;;;;;;;;;2096855;28;20200;-58
2021/04/22 01:44:40;;;;;;;10.60;5.90;;;;;;;;;;2096616;28;20274;-59
2021/04/22 01:45:41;;;;;;;10.47;6.17;;;;;;;;;;2089008;28;20168;-61
2021/04/22 01:46:41;;;;;;;18.27;6.70;;;;;;;;;;2088011;28;20544;-58
2021/04/22 01:47:42;;;;;;;14.53;5.70;;;;;;;;;;2096071;28;20170;-58
2021/04/22 01:48:42;;;;;;;17.37;6.93;;;;;;;;;;2094792;28;20172;-61
2021/04/22 01:49:42;;;;;;;20.13;6.17;;;;;;;;;;2096891;28;20170;-61
2021/04/22 01:50:43;;;;;;;16.57;6.53;;;;;;;;;;2096158;28;20179;-58
2021/04/22 01:51:43;;;;;;;19.53;5.80;;;;;;;;;;2097964;28;20170;-60
2021/04/22 01:52:44;;;;;;;22.00;6.57;;;;;;;;;;2096695;28;20174;-60
2021/04/22 01:53:44;;;;;;;15.77;6.33;;;;;;;;;;2096088;28;20344;-62
2021/04/22 01:54:44;;;;;;;19.80;6.60;;;;;;;;;;2096394;28;20175;-59
2021/04/22 01:55:47;;;;;;;14.00;5.87;;;;;;;;;;2098123;28;20647;-60
2021/04/22 01:56:47;;;;;;;16.17;5.87;;;;;;;;;;2090439;28;20702;-58
2021/04/22 01:57:48;;;;;;;18.57;6.50;;;;;;;;;;2096558;28;20174;-61
2021/04/22 01:58:49;;;;;;;15.67;6.23;;;;;;;;;;2090555;28;20697;-60
2021/04/22 01:59:49;;;;;;;13.40;6.33;;;;;;;;;;2097552;28;20204;-59
2021/04/22 02:00:50;;;;;;;12.17;6.00;;;;;;;;;;2097214;28;20167;-60
2021/04/22 02:01:51;;;;;;;14.80;5.97;;;;;;;;;;2090059;28;20183;-58
2021/04/22 02:02:51;;;;;;;17.90;6.33;;;;;;;;;;2097190;28;20167;-61
2021/04/22 02:03:51;;;;;;;11.10;6.30;;;;;;;;;;2097719;28;20183;-61
2021/04/22 02:04:51;;;;;;;15.77;6.20;;;;;;;;;;2089512;28;20168;-62
2021/04/22 02:05:52;;;;;;;18.30;6.60;;;;;;;;;;2097302;28;20175;-60
2021/04/22 02:06:52;;;;;;;15.37;6.47;;;;;;;;;;2098183;28;20194;-56
2021/04/22 02:07:53;;;;;;;16.43;5.97;;;;;;;;;;2097546;28;20237;-58
2021/04/22 02:08:53;;;;;;;10.23;5.03;;;;;;;;;;2097986;28;20174;-58
2021/04/22 02:09:53;;;;;;;13.13;6.33;;;;;;;;;;2096980;28;20265;-58
2021/04/22 02:10:54;;;;;;;14.13;6.33;;;;;;;;;;2097380;28;20579;-58
2021/04/22 02:11:54;;;;;;;14.47;5.90;;;;;;;;;;2088046;28;20628;-59
2021/04/22 02:12:54;;;;;;;13.00;6.23;;;;;;;;;;2097495;28;20179;-59
2021/04/22 02:13:55;;;;;;;16.60;6.13;;;;;;;;;;2096375;28;20182;-60
2021/04/22 02:14:55;;;;;;;14.07;6.40;;;;;;;;;;2097216;28;20716;-57
2021/04/22 02:15:55;;;;;;;17.97;6.33;;;;;;;;;;2095370;28;20186;-58
2021/04/22 02:16:55;;;;;;;15.90;6.43;;;;;;;;;;2119409;22;20228;-56
2021/04/22 02:17:56;;;;;;;21.73;6.90;;;;;;;;;;2099945;28;20261;-55
2021/04/22 02:18:57;;;;;;;17.50;6.73;;;;;;;;;;2104634;28;20194;-55
2021/04/22 02:19:57;;;;;;;15.13;6.70;;;;;;;;;;2105996;28;20239;-58
2021/04/22 02:20:57;;;;;;;13.93;6.17;;;;;;;;;;2105963;28;20181;-58
2021/04/22 02:21:57;;;;;;;15.97;6.33;;;;;;;;;;2100939;28;20175;-55
2021/04/22 02:22:58;;;;;;;18.17;6.70;;;;;;;;;;2099963;28;20193;-58
2021/04/22 02:23:58;;;;;;;12.37;6.67;;;;;;;;;;2106382;28;20170;-54
2021/04/22 02:24:58;;;;;;;19.40;7.53;;;;;;;;;;2106916;28;20180;-58
2021/04/22 02:25:59;;;;;;;12.07;6.37;;;;;;;;;;2102479;28;20183;-58
2021/04/22 02:26:59;;;;;;;16.67;7.00;;;;;;;;;;2104435;28;20287;-58
2021/04/22 02:28:00;;;;;;;20.60;6.27;;;;;;;;;;2105940;28;20170;-59
2021/04/22 02:29:00;;;;;;;14.03;5.63;;;;;;;;;;2100689;28;20171;-59
2021/04/22 02:30:00;;;;;;;11.80;6.57;;;;;;;;;;2097188;28;20182;-60
2021/04/22 02:31:00;;;;;;;13.90;6.47;;;;;;;;;;2098660;28;20586;-57
2021/04/22 02:32:01;;;;;;;13.33;6.67;;;;;;;;;;2106851;28;20261;-57
2021/04/22 02:33:04;;;;;;;19.37;6.63;;;;;;;;;;2107486;28;20623;-60
2021/04/22 02:34:04;;;;;;;18.07;6.83;;;;;;;;;;2100747;28;20237;-57
2021/04/22 02:35:06;;;;;;;17.17;7.43;;;;;;;;;;2106782;28;20182;-56
2021/04/22 02:36:06;;;;;;;12.67;6.27;;;;;;;;;;2106038;28;20190;-57
2021/04/22 02:37:06;;;;;;;12.73;6.90;;;;;;;;;;2106719;28;20602;-58
2021/04/22 02:38:08;;;;;;;18.63;7.23;;;;;;;;;;2105359;28;20192;-58
2021/04/22 02:39:09;;;;;;;12.57;6.33;;;;;;;;;;2101383;28;20248;-59
2021/04/22 02:40:10;;;;;;;16.60;7.07;;;;;;;;;;2104652;28;20227;-58
2021/04/22 02:41:10;;;;;;;15.00;7.30;;;;;;;;;;2107823;28;20193;-57
2021/04/22 02:42:11;;;;;;;15.53;6.87;;;;;;;;;;2106637;28;20185;-58
2021/04/22 02:43:12;;;;;;;13.63;7.20;;;;;;;;;;2105945;28;20174;-58
2021/04/22 02:44:12;;;;;;;17.00;7.00;;;;;;;;;;2103731;28;20623;-59
2021/04/22 02:45:18;;;;;;;18.17;6.03;;;;;;;;;;2106939;28;20170;-58
2021/04/22 02:46:18;;;;;;;13.40;6.10;;;;;;;;;;2106383;28;20674;-55
2021/04/22 02:47:18;;;;;;;11.47;6.13;;;;;;;;;;2107675;28;20198;-57
2021/04/22 02:48:19;;;;;;;12.93;5.97;;;;;;;;;;2101083;28;20170;-58
2021/04/22 02:49:19;;;;;;;16.87;6.10;;;;;;;;;;2101907;28;20174;-59
2021/04/22 02:50:21;;;;;;;14.57;6.57;;;;;;;;;;2100461;28;20179;-59
2021/04/22 02:51:21;;;;;;;20.27;6.53;;;;;;;;;;2100349;28;20654;-55
2021/04/22 02:52:21;;;;;;;16.67;6.50;;;;;;;;;;2102430;28;20182;-59
2021/04/22 02:53:22;;;;;;;18.10;6.73;;;;;;;;;;2104053;28;20422;-60
2021/04/22 02:54:23;;;;;;;15.47;7.07;;;;;;;;;;2107014;28;20174;-59
2021/04/22 02:55:23;;;;;;;10.33;5.83;;;;;;;;;;2106811;28;20584;-57
2021/04/22 02:56:23;;;;;;;15.07;6.63;;;;;;;;;;2106471;28;20353;-58
2021/04/22 02:57:24;;;;;;;12.10;5.80;;;;;;;;;;2106404;28;20189;-59
2021/04/22 02:58:24;;;;;;;13.20;6.47;;;;;;;;;;2106140;28;20668;-59
2021/04/22 02:59:25;;;;;;;13.13;6.87;;;;;;;;;;2104514;28;20744;-57
2021/04/22 03:00:25;;;;;;;10.63;5.77;;;;;;;;;;2105104;28;20202;-56
2021/04/22 03:01:25;;;;;;;12.53;6.20;;;;;;;;;;2106884;28;20187;-58
2021/04/22 03:02:25;;;;;;;15.53;7.03;;;;;;;;;;2106643;28;20181;-57
2021/04/22 03:03:26;;;;;;;15.20;6.70;;;;;;;;;;2102448;28;20626;-60
2021/04/22 03:04:26;;;;;;;17.47;6.43;;;;;;;;;;2103696;28;20218;-60
2021/04/22 03:05:26;;;;;;;14.57;6.63;;;;;;;;;;2103078;28;20187;-58
2021/04/22 03:06:27;;;;;;;12.43;5.57;;;;;;;;;;2104206;28;20627;-57
2021/04/22 03:07:27;;;;;;;12.53;6.27;;;;;;;;;;2105758;28;20287;-59
2021/04/22 03:08:27;;;;;;;14.60;6.33;;;;;;;;;;2102454;28;20171;-59
2021/04/22 03:09:27;;;;;;;18.13;6.83;;;;;;;;;;2101123;28;20174;-55
2021/04/22 03:10:28;;;;;;;15.93;7.67;;;;;;;;;;2101883;28;20220;-59
2021/04/22 03:11:28;;;;;;;13.60;7.10;;;;;;;;;;2098605;28;20414;-55
2021/04/22 03:12:28;;;;;;;9.43;6.20;;;;;;;;;;2103877;28;20699;-59
2021/04/22 03:13:28;;;;;;;11.83;6.03;;;;;;;;;;2101379;28;20179;-58
2021/04/22 03:14:29;;;;;;;13.30;6.67;;;;;;;;;;2103716;28;20200;-60
2021/04/22 03:15:29;;;;;;;24.00;7.60;;;;;;;;;;2105780;28;20187;-59
2021/04/22 03:16:29;;;;;;;17.20;6.60;;;;;;;;;;2106245;28;20170;-56
2021/04/22 03:17:30;;;;;;;19.00;6.27;;;;;;;;;;2105830;28;20515;-57
2021/04/22 03:18:30;;;;;;;14.50;6.73;;;;;;;;;;2106418;28;20174;-59
2021/04/22 03:19:30;;;;;;;13.40;6.57;;;;;;;;;;2103842;28;20974;-59
2021/04/22 03:20:31;;;;;;;8.17;6.20;;;;;;;;;;2104787;28;20820;-59
2021/04/22 03:21:31;;;;;;;19.57;7.13;;;;;;;;;;2106733;28;20182;-56
2021/04/22 03:22:32;;;;;;;21.30;7.13;;;;;;;;;;2104205;28;20178;-56
2021/04/22 03:23:32;;;;;;;14.47;6.00;;;;;;;;;;2104071;28;20286;-59
2021/04/22 03:24:33;;;;;;;15.10;6.47;;;;;;;;;;2103152;28;20211;-59
2021/04/22 03:25:33;;;;;;;18.70;6.40;;;;;;;;;;2102738;28;20202;-58
2021/04/22 03:26:34;;;;;;;15.47;7.10;;;;;;;;;;2101126;28;20201;-58
2021/04/22 03:27:34;;;;;;;22.47;7.03;;;;;;;;;;2104234;28;20185;-59
2021/04/22 03:28:34;;;;;;;16.17;6.30;;;;;;;;;;2106886;28;20166;-58
2021/04/22 03:29:35;;;;;;;17.00;6.33;;;;;;;;;;2105051;28;20174;-59
2021/04/22 03:30:35;;;;;;;18.97;6.97;;;;;;;;;;2104901;28;20258;-59
2021/04/22 03:31:35;;;;;;;20.33;6.90;;;;;;;;;;2104706;28;20596;-56
2021/04/22 03:32:36;;;;;;;15.13;6.97;;;;;;;;;;2105151;28;20186;-58
2021/04/22 03:33:36;;;;;;;15.13;6.30;;;;;;;;;;2103605;28;20162;-60
2021/04/22 03:34:36;;;;;;;11.17;6.43;;;;;;;;;;2105220;28;20170;-58
2021/04/22 03:35:37;;;;;;;13.67;6.23;;;;;;;;;;2104289;28;20166;-57
2021/04/22 03:36:37;;;;;;;16.53;6.67;;;;;;;;;;2105034;28;20711;-57
2021/04/22 03:37:37;;;;;;;15.40;7.07;;;;;;;;;;2103305;28;20173;-58
2021/04/22 03:38:38;;;;;;;14.57;6.63;;;;;;;;;;2104155;28;20253;-57
2021/04/22 03:39:38;;;;;;;12.83;6.33;;;;;;;;;;2097435;28;20196;-55
2021/04/22 03:40:38;;;;;;;13.33;6.10;;;;;;;;;;2105583;28;20185;-55
2021/04/22 03:41:39;;;;;;;13.90;6.10;;;;;;;;;;2103191;28;20194;-59
2021/04/22 03:42:40;;;;;;;16.73;6.80;;;;;;;;;;2105605;28;20178;-58
2021/04/22 03:43:40;;;;;;;15.83;5.87;;;;;;;;;;2105181;28;20591;-58
2021/04/22 03:44:40;;;;;;;13.73;6.67;;;;;;;;;;2106025;28;20209;-57
2021/04/22 03:45:41;;;;;;;11.83;5.67;;;;;;;;;;2106262;28;20166;-58
2021/04/22 03:46:41;;;;;;;11.20;5.57;;;;;;;;;;2106928;28;20194;-58
2021/04/22 03:47:42;;;;;;;14.77;5.90;;;;;;;;;;2101380;28;20185;-56
2021/04/22 03:48:42;;;;;;;16.43;6.00;;;;;;;;;;2104618;28;20198;-59
2021/04/22 03:49:43;;;;;;;14.17;6.30;;;;;;;;;;2105045;28;20694;-58
2021/04/22 03:50:44;;;;;;;12.43;5.97;;;;;;;;;;2104643;28;20185;-56
2021/04/22 03:51:44;;;;;;;24.70;6.37;;;;;;;;;;2105876;28;20618;-57
2021/04/22 03:52:45;;;;;;;16.27;5.93;;;;;;;;;;2096768;28;20183;-56
2021/04/22 03:53:45;;;;;;;12.13;5.53;;;;;;;;;;2105468;28;20163;-59
2021/04/22 03:54:45;;;;;;;15.40;5.90;;;;;;;;;;2105820;28;20314;-57
2021/04/22 03:55:46;;;;;;;16.60;6.80;;;;;;;;;;2106875;28;20255;-58
2021/04/22 03:56:46;;;;;;;14.07;6.00;;;;;;;;;;2103669;28;20174;-57
2021/04/22 03:57:46;;;;;;;13.17;6.07;;;;;;;;;;2106660;28;20228;-60
2021/04/22 03:58:47;;;;;;;9.47;5.77;;;;;;;;;;2103844;28;20175;-56
2021/04/22 03:59:47;;;;;;;15.07;5.70;;;;;;;;;;2106954;28;20182;-55
2021/04/22 04:00:47;;;;;;;10.83;5.87;;;;;;;;;;2101895;28;20323;-59
2021/04/22 04:01:47;;;;;;;14.93;5.80;;;;;;;;;;2106507;28;20720;-57
2021/04/22 04:02:48;;;;;;;11.93;5.63;;;;;;;;;;2105588;28;20182;-57
2021/04/22 04:03:48;;;;;;;8.50;6.07;;;;;;;;;;2104849;28;20539;-58
2021/04/22 04:04:48;;;;;;;17.10;5.53;;;;;;;;;;2106767;28;20159;-58
2021/04/22 04:05:49;;;;;;;17.13;5.80;;;;;;;;;;2104988;28;20694;-55
2021/04/22 04:06:49;;;;;;;16.30;6.40;;;;;;;;;;2105580;28;20232;-56
2021/04/22 04:07:49;;;;;;;13.30;5.77;;;;;;;;;;2098313;28;20175;-57
2021/04/22 04:08:50;;;;;;;11.33;5.23;;;;;;;;;;2106895;28;20659;-58
2021/04/22 04:09:50;;;;;;;13.87;6.10;;;;;;;;;;2104386;28;20680;-57
2021/04/22 04:10:50;;;;;;;13.40;5.57;;;;;;;;;;2106991;28;20554;-59
2021/04/22 04:11:50;;;;;;;11.40;5.70;;;;;;;;;;2103861;28;20228;-61
2021/04/22 04:12:51;;;;;;;12.57;5.67;;;;;;;;;;2106849;28;20592;-59
2021/04/22 04:13:51;;;;;;;15.23;5.87;;;;;;;;;;2093170;28;20167;-61
2021/04/22 04:14:51;;;;;;;16.70;6.27;;;;;;;;;;2097026;28;20651;-58
2021/04/22 04:15:51;;;;;;;13.03;5.43;;;;;;;;;;2106053;28;20170;-58
2021/04/22 04:16:52;;;;;;;14.63;5.83;;;;;;;;;;2101822;28;20210;-58
2021/04/22 04:17:52;;;;;;;8.90;5.37;;;;;;;;;;2104195;28;20178;-58
2021/04/22 04:18:52;;;;;;;11.83;5.20;;;;;;;;;;2099275;28;20178;-59
2021/04/22 04:19:52;;;;;;;17.10;5.80;;;;;;;;;;2102348;28;20759;-58
2021/04/22 04:20:53;;;;;;;13.60;5.80;;;;;;;;;;2102219;28;20178;-60
2021/04/22 04:21:53;;;;;;;15.77;6.07;;;;;;;;;;2105272;28;20624;-60
2021/04/22 04:22:53;;;;;;;12.60;5.63;;;;;;;;;;2102090;28;20636;-58
2021/04/22 04:23:53;;;;;;;15.20;6.57;;;;;;;;;;2101034;28;20182;-59
2021/04/22 04:24:54;;;;;;;17.43;6.17;;;;;;;;;;2106316;28;20203;-57
2021/04/22 04:25:54;;;;;;;16.50;6.03;;;;;;;;;;2101497;28;20207;-56
2021/04/22 04:26:54;;;;;;;10.30;5.67;;;;;;;;;;2105521;28;20295;-55
2021/04/22 04:27:54;;;;;;;13.87;6.23;;;;;;;;;;2100479;28;20179;-57
2021/04/22 04:28:55;;;;;;;18.83;6.37;;;;;;;;;;2106853;28;20190;-60
2021/04/22 04:29:55;;;;;;;14.90;6.27;;;;;;;;;;2098789;28;20181;-58
2021/04/22 04:30:55;;;;;;;14.87;6.43;;;;;;;;;;2100159;28;20186;-55
2021/04/22 04:31:55;;;;;;;11.33;5.77;;;;;;;;;;2099196;28;20183;-59
2021/04/22 04:32:56;;;;;;;11.30;6.00;;;;;;;;;;2106037;28;20162;-59
2021/04/22 04:33:56;;;;;;;15.27;6.07;;;;;;;;;;2105554;28;20562;-57
2021/04/22 04:34:56;;;;;;;14.33;6.07;;;;;;;;;;2105787;28;20171;-56
2021/04/22 04:35:57;;;;;;;15.90;6.60;;;;;;;;;;2106802;28;20170;-60
2021/04/22 04:36:57;;;;;;;11.60;5.80;;;;;;;;;;2105917;28;20186;-58
2021/04/22 04:37:58;;;;;;;10.93;5.73;;;;;;;;;;2107031;28;20762;-59
2021/04/22 04:38:58;;;;;;;14.77;4.90;;;;;;;;;;2099544;28;20174;-56
2021/04/22 04:39:59;;;;;;;12.00;6.30;;;;;;;;;;2106182;28;20526;-58
2021/04/22 04:40:59;;;;;;;12.63;5.60;;;;;;;;;;2105019;28;20183;-58
2021/04/22 04:41:59;;;;;;;10.43;5.33;;;;;;;;;;2106706;28;20589;-58
2021/04/22 04:43:00;;;;;;;12.57;6.27;;;;;;;;;;2106014;28;20163;-59
2021/04/22 04:44:00;;;;;;;13.97;5.80;;;;;;;;;;2105946;28;20658;-59
2021/04/22 04:45:00;;;;;;;11.70;5.70;;;;;;;;;;2105899;28;20659;-58
2021/04/22 04:46:00;;;;;;;14.17;6.70;;;;;;;;;;2106222;28;20174;-57
2021/04/22 04:47:01;;;;;;;15.90;6.03;;;;;;;;;;2105071;28;20198;-59
2021/04/22 04:48:01;;;;;;;20.57;5.87;;;;;;;;;;2107021;28;20206;-59
2021/04/22 04:49:02;;;;;;;14.37;5.97;;;;;;;;;;2103576;28;20202;-59
2021/04/22 04:50:03;;;;;;;15.40;5.70;;;;;;;;;;2100084;28;20194;-60
2021/04/22 04:51:03;;;;;;;13.03;5.70;;;;;;;;;;2101507;28;20528;-58
2021/04/22 04:52:04;;;;;;;11.03;5.13;;;;;;;;;;2105776;28;20174;-59
2021/04/22 04:53:04;;;;;;;18.23;6.40;;;;;;;;;;2103424;28;20194;-59
2021/04/22 04:54:05;;;;;;;13.63;5.90;;;;;;;;;;2104701;28;20200;-60
2021/04/22 04:55:05;;;;;;;16.43;5.37;;;;;;;;;;2103099;28;20224;-60
2021/04/22 04:56:06;;;;;;;16.20;5.53;;;;;;;;;;2105966;28;20291;-61
2021/04/22 04:57:07;;;;;;;16.20;5.73;;;;;;;;;;2102613;28;20195;-60
2021/04/22 04:58:07;;;;;;;16.97;6.17;;;;;;;;;;2105304;28;20174;-60
2021/04/22 04:59:07;;;;;;;14.33;6.03;;;;;;;;;;2100380;28;20183;-60
2021/04/22 05:00:09;;;;;;;11.93;5.50;;;;;;;;;;2104951;28;20158;-61
2021/04/22 05:01:09;;;;;;;16.03;6.87;;;;;;;;;;2105289;28;20174;-60
2021/04/22 05:02:09;;;;;;;14.77;5.70;;;;;;;;;;2106181;28;20201;-59
2021/04/22 05:03:10;;;;;;;12.37;5.97;;;;;;;;;;2099265;28;20190;-59
2021/04/22 05:04:10;;;;;;;14.07;6.30;;;;;;;;;;2099493;28;20281;-56
2021/04/22 05:05:10;;;;;;;15.73;5.80;;;;;;;;;;2104793;28;20174;-56
2021/04/22 05:06:11;;;;;;;15.23;5.97;;;;;;;;;;2099561;28;20722;-60
2021/04/22 05:07:11;;;;;;;10.63;5.47;;;;;;;;;;2106546;28;20190;-61
2021/04/22 05:08:11;;;;;;;11.77;5.27;;;;;;;;;;2096550;28;20163;-54
2021/04/22 05:09:11;;;;;;;16.80;6.17;;;;;;;;;;2096801;28;20239;-59
2021/04/22 05:10:12;;;;;;;13.53;5.80;;;;;;;;;;2105034;28;20772;-56
2021/04/22 05:11:12;;;;;;;12.67;5.90;;;;;;;;;;2106364;28;20516;-61
2021/04/22 05:12:13;;;;;;;17.47;5.90;;;;;;;;;;2105640;28;20253;-58
2021/04/22 05:13:13;;;;;;;13.23;6.03;;;;;;;;;;2105607;28;20175;-57
2021/04/22 05:14:13;;;;;;;13.47;5.60;;;;;;;;;;2105177;28;20327;-57
2021/04/22 05:15:13;;;;;;;12.40;6.03;;;;;;;;;;2105893;28;20170;-58
2021/04/22 05:16:15;;;;;;;13.70;5.40;;;;;;;;;;2104081;28;20186;-59
2021/04/22 05:17:15;;;;;;;17.87;6.03;;;;;;;;;;2103663;28;20212;-59
2021/04/22 05:18:16;;;;;;;15.77;5.87;;;;;;;;;;2108504;28;20189;-59
2021/04/22 05:19:16;;;;;;;14.70;5.67;;;;;;;;;;2106696;28;20692;-57
2021/04/22 05:20:16;;;;;;;12.40;6.43;;;;;;;;;;2105583;28;20635;-57
2021/04/22 05:21:17;;;;;;;15.40;5.73;;;;;;;;;;2101073;28;20182;-58
2021/04/22 05:22:17;;;;;;;17.70;6.10;;;;;;;;;;2105025;28;20167;-58
2021/04/22 05:23:18;;;;;;;14.90;5.77;;;;;;;;;;2105400;28;20178;-60
2021/04/22 05:24:18;;;;;;;13.67;6.17;;;;;;;;;;2104576;28;20289;-57
2021/04/22 05:25:19;;;;;;;12.73;5.60;;;;;;;;;;2104707;28;20174;-56
2021/04/22 05:26:19;;;;;;;21.30;6.20;;;;;;;;;;2105153;28;20201;-58
2021/04/22 05:27:20;;;;;;;12.33;5.70;;;;;;;;;;2102027;28;20193;-56
2021/04/22 05:28:21;;;;;;;14.30;5.07;;;;;;;;;;2103991;28;20238;-59
2021/04/22 05:29:21;;;;;;;14.23;6.30;;;;;;;;;;2097173;28;20179;-56
2021/04/22 05:30:21;;;;;;;14.37;5.70;;;;;;;;;;2100721;28;20379;-61
2021/04/22 05:31:22;;;;;;;13.77;5.40;;;;;;;;;;2106244;28;20253;-58
2021/04/22 05:32:22;;;;;;;17.33;6.67;;;;;;;;;;2105579;28;20170;-57
2021/04/22 05:33:22;;;;;;;13.77;5.63;;;;;;;;;;2102632;28;20210;-55
2021/04/22 05:34:23;;;;;;;14.17;5.83;;;;;;;;;;2096927;28;20174;-55
2021/04/22 05:35:23;;;;;;;14.70;6.13;;;;;;;;;;2101889;28;20315;-56
2021/04/22 05:36:23;;;;;;;14.67;6.00;;;;;;;;;;2101729;28;22254;-57
2021/04/22 05:37:23;;;;;;;18.83;6.13;;;;;;;;;;2097129;28;20203;-58
2021/04/22 05:38:24;;;;;;;18.20;6.60;;;;;;;;;;2101734;28;20181;-59
2021/04/22 05:39:24;;;;;;;11.20;4.90;;;;;;;;;;2099914;28;20244;-58
2021/04/22 05:40:24;;;;;;;13.00;5.80;;;;;;;;;;2101397;28;20240;-56
2021/04/22 05:41:24;;;;;;;16.70;5.70;;;;;;;;;;2107594;28;20217;-58
2021/04/22 05:42:25;;;;;;;13.97;5.47;;;;;;;;;;2104152;28;20190;-57
2021/04/22 05:43:25;;;;;;;10.53;5.57;;;;;;;;;;2101611;28;20189;-56
2021/04/22 05:44:26;;;;;;;12.67;5.77;;;;;;;;;;2106600;28;20812;-58
2021/04/22 05:45:26;;;;;;;12.80;5.33;;;;;;;;;;2102552;28;20317;-57
2021/04/22 05:46:26;;;;;;;12.43;5.67;;;;;;;;;;2109189;28;20256;-55
2021/04/22 05:47:27;;;;;;;11.40;5.33;;;;;;;;;;2100442;28;20205;-57
2021/04/22 05:48:27;;;;;;;9.10;5.70;;;;;;;;;;2107287;28;20179;-55
2021/04/22 05:49:27;;;;;;;10.77;5.57;;;;;;;;;;2100360;28;20710;-55
2021/04/22 05:50:27;;;;;;;10.30;5.10;;;;;;;;;;2105839;28;20184;-53
2021/04/22 05:51:28;;;;;;;14.20;5.70;;;;;;;;;;2101888;28;20174;-56
2021/04/22 05:52:28;;;;;;;9.37;5.87;;;;;;;;;;2105009;28;20159;-56
2021/04/22 05:53:28;;;;;;;16.07;6.37;;;;;;;;;;2104847;28;20752;-60
2021/04/22 05:54:29;;;;;;;14.67;5.43;;;;;;;;;;2107534;28;20554;-57
2021/04/22 05:55:29;;;;;;;10.47;5.67;;;;;;;;;;2102702;28;20226;-61
2021/04/22 05:56:29;;;;;;;11.13;4.67;;;;;;;;;;2106970;28;20227;-58
2021/04/22 05:57:30;;;;;;;17.97;5.73;;;;;;;;;;2104261;28;20185;-56